createdAt,value
2023-09-22T00:00:12.836Z,99131.25
2023-09-22T00:02:41.236Z,99123.16
2023-09-22T00:05:09.542Z,99119.91
2023-09-22T00:07:36.373Z,99125.22
2023-09-22T00:10:03.433Z,99125.19
2023-09-22T00:12:30.715Z,99132.34
2023-09-22T00:14:58.736Z,99139.50
2023-09-22T00:17:26.653Z,99137.34
2023-09-22T00:19:53.528Z,99130.34
2023-09-22T00:22:20.274Z,99127.38
2023-09-22T00:24:47.236Z,99133.53
2023-09-22T00:27:17.372Z,99131.38
2023-09-22T00:29:44.376Z,99134.06
2023-09-22T00:32:13.217Z,99150.59
2023-09-22T00:34:40.621Z,99160.50
2023-09-22T00:37:08.548Z,99160.72
2023-09-22T00:39:35.412Z,99150.28
2023-09-22T00:42:03.474Z,99150.78
2023-09-22T00:44:31.129Z,99146.00
2023-09-22T00:46:59.645Z,99148.09
2023-09-22T00:49:26.744Z,99148.59
2023-09-22T00:51:53.915Z,99159.78
2023-09-22T00:54:21.259Z,99169.69
2023-09-22T00:56:48.547Z,99161.34
2023-09-22T00:59:17.227Z,99156.00
2023-09-22T01:01:44.509Z,99155.66
2023-09-22T01:04:14.676Z,99162.66
2023-09-22T01:06:44.482Z,99172.56
2023-09-22T01:09:11.267Z,99180.31
2023-09-22T01:11:38.343Z,99168.00
2023-09-22T01:14:05.146Z,99179.75
2023-09-22T01:16:33.015Z,99179.19
2023-09-22T01:19:00.576Z,99186.16
2023-09-22T01:21:32.198Z,99188.50
2023-09-22T01:23:59.717Z,99190.38
2023-09-22T01:26:26.640Z,99187.16
2023-09-22T01:28:53.849Z,99184.72
2023-09-22T01:31:20.675Z,99184.97
2023-09-22T01:33:47.985Z,99179.88
2023-09-22T01:36:15.630Z,99177.44
2023-09-22T01:38:43.295Z,99186.53
2023-09-22T01:41:12.759Z,99184.88
2023-09-22T01:43:40.316Z,99187.00
2023-09-22T01:46:08.510Z,99189.09
2023-09-22T01:48:35.500Z,99191.22
2023-09-22T01:51:06.069Z,99190.06
2023-09-22T01:53:32.822Z,99186.81
2023-09-22T01:55:59.595Z,99186.25
2023-09-22T01:58:26.403Z,99189.19
2023-09-22T02:00:53.388Z,99195.56
2023-09-22T02:03:20.577Z,99203.03
2023-09-22T02:05:47.807Z,99218.25
2023-09-22T02:08:14.644Z,99210.19
2023-09-22T02:10:41.977Z,99212.03
2023-09-22T02:13:10.686Z,99209.09
2023-09-22T02:15:38.253Z,99211.78
2023-09-22T02:18:05.766Z,99217.13
2023-09-22T02:20:32.848Z,99224.09
2023-09-22T02:23:00.293Z,99223.03
2023-09-22T02:25:27.647Z,99221.44
2023-09-22T02:27:57.002Z,99213.41
2023-09-22T02:30:24.664Z,99218.75
2023-09-22T02:32:53.609Z,99226.78
2023-09-22T02:35:22.866Z,99228.06
2023-09-22T02:37:50.755Z,99229.34
2023-09-22T02:40:18.648Z,99240.03
2023-09-22T02:42:45.676Z,99226.69
2023-09-22T02:45:13.544Z,99236.56
2023-09-22T02:47:42.237Z,99226.44
2023-09-22T02:50:11.828Z,99233.66
2023-09-22T02:52:40.730Z,99233.66
2023-09-22T02:55:12.467Z,99240.63
2023-09-22T02:57:39.908Z,99243.78
2023-09-22T03:00:16.634Z,99241.13
2023-09-22T03:02:43.884Z,99234.38
2023-09-22T03:05:11.492Z,99235.78
2023-09-22T03:07:42.563Z,99240.84
2023-09-22T03:10:11.821Z,99238.19
2023-09-22T03:12:40.019Z,99237.94
2023-09-22T03:15:11.119Z,99233.97
2023-09-22T03:17:38.840Z,99232.13
2023-09-22T03:20:14.077Z,99234.81
2023-09-22T03:22:41.581Z,99233.50
2023-09-22T03:25:12.537Z,99231.13
2023-09-22T03:27:41.085Z,99225.31
2023-09-22T03:30:11.191Z,99231.22
2023-09-22T03:32:40.667Z,99231.22
2023-09-22T03:35:10.101Z,99239.81
2023-09-22T03:37:39.355Z,99244.91
2023-09-22T03:40:11.771Z,99229.69
2023-09-22T03:42:38.747Z,99229.13
2023-09-22T03:45:07.952Z,99214.94
2023-09-22T03:47:34.997Z,99211.94
2023-09-22T03:50:02.328Z,99221.00
2023-09-22T03:52:29.782Z,99227.97
2023-09-22T03:54:56.628Z,99224.50
2023-09-22T03:57:24.063Z,99230.66
2023-09-22T03:59:51.083Z,99238.16
2023-09-22T04:02:17.908Z,99224.25
2023-09-22T04:04:44.647Z,99229.34
2023-09-22T04:07:11.416Z,99226.91
2023-09-22T04:09:38.150Z,99242.16
2023-09-22T04:12:05.093Z,99246.13
2023-09-22T04:14:31.997Z,99240.78
2023-09-22T04:16:59.202Z,99227.19
2023-09-22T04:19:25.980Z,99232.53
2023-09-22T04:21:53.938Z,99225.31
2023-09-22T04:24:21.775Z,99224.25
2023-09-22T04:26:50.508Z,99231.22
2023-09-22T04:29:18.517Z,99230.41
2023-09-22T04:31:46.841Z,99234.94
2023-09-22T04:34:13.833Z,99239.00
2023-09-22T04:36:41.397Z,99253.94
2023-09-22T04:39:09.773Z,99250.97
2023-09-22T04:41:36.636Z,99242.06
2023-09-22T04:44:03.675Z,99240.06
2023-09-22T04:46:30.540Z,99244.00
2023-09-22T04:48:57.366Z,99266.75
2023-09-22T04:51:24.148Z,99274.56
2023-09-22T04:53:51.595Z,99280.72
2023-09-22T04:56:18.359Z,99286.34
2023-09-22T04:58:46.077Z,99290.63
2023-09-22T05:01:13.175Z,99300.28
2023-09-22T05:03:40.786Z,99318.19
2023-09-22T05:06:10.713Z,99297.34
2023-09-22T05:08:40.177Z,99288.56
2023-09-22T05:11:08.689Z,99282.16
2023-09-22T05:13:37.281Z,99270.88
2023-09-22T05:16:13.832Z,99262.28
2023-09-22T05:18:41.119Z,99261.50
2023-09-22T05:21:10.837Z,99269.72
2023-09-22T05:23:37.933Z,99281.31
2023-09-22T05:29:39.911Z,99293.91
2023-09-22T05:32:06.641Z,99296.53
2023-09-22T05:34:34.712Z,99298.66
2023-09-22T05:37:04.624Z,99314.53
2023-09-22T05:39:31.453Z,99325.78
2023-09-22T05:41:58.214Z,99338.84
2023-09-22T05:44:24.995Z,99337.22
2023-09-22T05:46:54.002Z,99341.28
2023-09-22T05:49:21.781Z,99355.53
2023-09-22T05:51:50.333Z,99366.31
2023-09-22T05:54:17.167Z,99377.25
2023-09-22T05:56:43.888Z,99375.16
2023-09-22T05:59:11.130Z,99387.72
2023-09-22T06:01:38.705Z,99389.88
2023-09-22T06:04:05.925Z,99380.25
2023-09-22T06:06:33.701Z,99387.16
2023-09-22T06:09:00.626Z,99408.94
2023-09-22T06:11:27.726Z,99419.66
2023-09-22T06:13:54.706Z,99399.31
2023-09-22T06:16:21.531Z,99407.91
2023-09-22T06:18:48.612Z,99429.56
2023-09-22T06:21:15.534Z,99435.94
2023-09-22T06:23:42.315Z,99430.47
2023-09-22T06:26:11.998Z,99418.34
2023-09-22T06:28:42.456Z,99418.63
2023-09-22T06:31:09.507Z,99413.56
2023-09-22T06:33:36.561Z,99407.19
2023-09-22T06:36:05.725Z,99402.88
2023-09-22T06:38:36.403Z,99402.41
2023-09-22T06:41:04.744Z,99406.44
2023-09-22T06:43:32.529Z,99408.06
2023-09-22T06:46:04.849Z,99412.13
2023-09-22T06:48:31.880Z,99416.97
2023-09-22T06:51:00.033Z,99407.66
2023-09-22T06:53:28.233Z,99423.81
2023-09-22T06:56:08.306Z,99418.28
2023-09-22T06:58:37.243Z,99424.53
2023-09-22T07:01:18.360Z,99433.75
2023-09-22T07:03:46.809Z,99442.75
2023-09-22T07:06:16.862Z,99434.06
2023-09-22T07:08:47.238Z,99425.03
2023-09-22T07:11:14.798Z,99422.38
2023-09-22T07:13:42.552Z,99412.50
2023-09-22T07:16:10.306Z,99416.53
2023-09-22T07:18:37.551Z,99430.72
2023-09-22T07:21:04.432Z,99439.84
2023-09-22T07:23:34.114Z,99449.81
2023-09-22T07:26:10.772Z,99466.19
2023-09-22T07:28:37.632Z,99489.63
2023-09-22T07:31:12.755Z,99485.41
2023-09-22T07:33:40.424Z,99477.41
2023-09-22T07:36:08.800Z,99477.41
2023-09-22T07:38:36.027Z,99474.81
2023-09-22T07:41:03.621Z,99461.66
2023-09-22T07:43:31.193Z,99457.19
2023-09-22T07:45:58.920Z,99465.28
2023-09-22T07:48:26.372Z,99457.75
2023-09-22T07:50:54.214Z,99466.97
2023-09-22T07:53:21.949Z,99457.94
2023-09-22T07:55:49.373Z,99455.38
2023-09-22T07:58:16.379Z,99458.16
2023-09-22T08:00:48.105Z,99465.81
2023-09-22T08:03:15.747Z,99473.09
2023-09-22T08:05:42.622Z,99490.53
2023-09-22T08:08:11.692Z,99498.81
2023-09-22T08:10:40.043Z,99513.78
2023-09-22T08:13:09.035Z,99510.72
2023-09-22T08:15:39.413Z,99525.88
2023-09-22T08:18:07.491Z,99521.19
2023-09-22T08:20:36.027Z,99529.50
2023-09-22T08:23:03.004Z,99518.31
2023-09-22T08:25:30.115Z,99514.84
2023-09-22T08:27:57.864Z,99530.69
2023-09-22T08:30:25.390Z,99547.75
2023-09-22T08:32:52.382Z,99546.66
2023-09-22T08:35:19.263Z,99543.50
2023-09-22T08:37:46.161Z,99545.78
2023-09-22T08:40:16.710Z,99547.44
2023-09-22T08:42:45.649Z,99543.78
2023-09-22T08:45:14.355Z,99542.78
2023-09-22T08:47:42.340Z,99535.94
2023-09-22T08:50:11.335Z,99530.63
2023-09-22T08:52:40.033Z,99532.31
2023-09-22T08:55:09.585Z,99531.16
2023-09-22T08:57:37.229Z,99530.16
2023-09-22T09:00:12.186Z,99545.53
2023-09-22T09:02:40.721Z,99546.16
2023-09-22T09:05:28.592Z,99544.16
2023-09-22T09:07:57.165Z,99536.16
2023-09-22T09:10:34.790Z,99527.50
2023-09-22T09:13:03.186Z,99523.03
2023-09-22T09:15:51.294Z,99530.72
2023-09-22T09:18:21.060Z,99548.38
2023-09-22T09:20:50.314Z,99548.88
2023-09-22T09:23:21.765Z,99553.47
2023-09-22T09:25:57.802Z,99577.22
2023-09-22T09:28:25.534Z,99565.94
2023-09-22T09:31:00.078Z,99566.69
2023-09-22T09:33:33.154Z,99566.41
2023-09-22T09:36:00.390Z,99558.84
2023-09-22T09:38:28.849Z,99552.94
2023-09-22T09:40:59.910Z,99541.06
2023-09-22T09:43:27.043Z,99537.34
2023-09-22T09:45:59.184Z,99523.38
2023-09-22T09:48:27.804Z,99526.94
2023-09-22T09:50:58.937Z,99526.19
2023-09-22T09:53:44.082Z,99525.22
2023-09-22T09:56:18.891Z,99529.66
2023-09-22T09:58:49.806Z,99524.69
2023-09-22T10:01:19.250Z,99536.06
2023-09-22T10:03:47.026Z,99539.91
2023-09-22T10:06:17.040Z,99536.78
2023-09-22T10:08:43.904Z,99537.22
2023-09-22T10:11:13.746Z,99531.84
2023-09-22T10:13:40.959Z,99527.53
2023-09-22T10:16:10.502Z,99538.00
2023-09-22T10:18:49.654Z,99556.56
2023-09-22T10:21:31.963Z,99556.56
2023-09-22T10:24:27.535Z,99555.75
2023-09-22T10:26:57.376Z,99534.47
2023-09-22T10:29:36.661Z,99530.72
2023-09-22T10:32:19.385Z,99552.25
2023-09-22T10:34:51.121Z,99556.00
2023-09-22T10:37:19.547Z,99570.00
2023-09-22T10:39:51.137Z,99570.28
2023-09-22T10:42:18.845Z,99556.56
2023-09-22T10:45:06.017Z,99549.03
2023-09-22T10:47:51.356Z,99546.66
2023-09-22T10:50:23.836Z,99541.03
2023-09-22T10:53:04.411Z,99542.41
2023-09-22T10:55:39.117Z,99544.81
2023-09-22T10:58:07.508Z,99550.50
2023-09-22T11:00:41.118Z,99542.97
2023-09-22T11:03:13.043Z,99542.47
2023-09-22T11:05:41.644Z,99540.53
2023-09-22T11:08:16.159Z,99552.41
2023-09-22T11:10:47.551Z,99545.13
2023-09-22T11:13:16.094Z,99552.16
2023-09-22T11:16:01.552Z,99551.88
2023-09-22T11:18:29.357Z,99568.31
2023-09-22T11:21:14.746Z,99566.47
2023-09-22T11:23:42.645Z,99563.16
2023-09-22T11:26:12.158Z,99566.56
2023-09-22T11:28:47.482Z,99580.72
2023-09-22T11:31:21.455Z,99590.88
2023-09-22T11:34:00.857Z,99583.91
2023-09-22T11:36:27.733Z,99602.00
2023-09-22T11:38:57.449Z,99598.06
2023-09-22T11:41:24.734Z,99587.88
2023-09-22T11:43:56.395Z,99589.72
2023-09-22T11:46:29.963Z,99600.75
2023-09-22T11:49:01.309Z,99599.09
2023-09-22T11:51:53.026Z,99585.63
2023-09-22T11:54:21.375Z,99584.22
2023-09-22T11:56:49.054Z,99592.00
2023-09-22T11:59:21.317Z,99577.91
2023-09-22T12:01:50.174Z,99573.50
2023-09-22T12:04:20.180Z,99574.22
2023-09-22T12:06:47.248Z,99573.50
2023-09-22T12:09:14.437Z,99587.28
2023-09-22T12:11:43.176Z,99594.25
2023-09-22T12:14:11.521Z,99577.84
2023-09-22T12:16:42.022Z,99592.16
2023-09-22T12:19:09.331Z,99602.50
2023-09-22T12:21:36.997Z,99585.69
2023-09-22T12:24:04.179Z,99578.41
2023-09-22T12:26:32.430Z,99573.78
2023-09-22T12:28:59.477Z,99577.28
2023-09-22T12:31:27.917Z,99576.78
2023-09-22T12:33:55.997Z,99581.56
2023-09-22T12:36:22.918Z,99579.81
2023-09-22T12:38:49.925Z,99572.88
2023-09-22T12:41:16.748Z,99575.72
2023-09-22T12:43:43.795Z,99569.59
2023-09-22T12:46:13.260Z,99565.28
2023-09-22T12:48:42.066Z,99575.09
2023-09-22T12:51:12.819Z,99577.53
2023-09-22T12:53:40.759Z,99575.94
2023-09-22T12:56:08.222Z,99587.09
2023-09-22T12:58:36.415Z,99580.59
2023-09-22T13:01:07.958Z,99584.56
2023-09-22T13:03:36.239Z,99579.88
2023-09-22T13:06:05.058Z,99585.38
2023-09-22T13:08:36.070Z,99585.97
2023-09-22T13:11:04.283Z,99580.81
2023-09-22T13:13:32.153Z,99588.66
2023-09-22T13:15:59.832Z,99581.38
2023-09-22T13:18:26.950Z,99581.69
2023-09-22T13:20:53.759Z,99579.81
2023-09-22T13:23:20.991Z,99567.19
2023-09-22T13:25:48.168Z,99557.91
2023-09-22T13:28:17.055Z,99548.44
2023-09-22T13:30:53.900Z,99549.22
2023-09-22T13:33:21.932Z,99543.63
2023-09-22T13:35:52.270Z,99540.94
2023-09-22T13:38:19.853Z,99546.38
2023-09-22T13:40:48.681Z,99541.56
2023-09-22T13:43:16.618Z,99537.00
2023-09-22T13:45:43.932Z,99546.91
2023-09-22T13:48:11.080Z,99541.22
2023-09-22T13:50:42.342Z,99547.81
2023-09-22T13:53:10.043Z,99555.34
2023-09-22T13:55:39.273Z,99548.19
2023-09-22T13:58:06.253Z,99555.69
2023-09-22T14:00:33.034Z,99548.13
2023-09-22T14:03:00.938Z,99555.91
2023-09-22T14:05:29.482Z,99554.53
2023-09-22T14:07:57.022Z,99558.00
2023-09-22T14:10:25.802Z,99570.41
2023-09-22T14:12:53.045Z,99564.53
2023-09-22T14:15:21.096Z,99569.91
2023-09-22T14:17:50.433Z,99571.09
2023-09-22T14:20:18.866Z,99574.00
2023-09-22T14:22:45.873Z,99565.31
2023-09-22T14:25:13.013Z,99565.34
2023-09-22T14:27:40.697Z,99567.94
2023-09-22T14:30:08.840Z,99580.50
2023-09-22T14:32:36.756Z,99580.00
2023-09-22T14:35:03.988Z,99574.38
2023-09-22T14:37:31.299Z,99575.97
2023-09-22T14:39:58.356Z,99576.38
2023-09-22T14:42:25.563Z,99566.09
2023-09-22T14:44:52.332Z,99574.78
2023-09-22T14:47:19.741Z,99566.22
2023-09-22T14:49:46.741Z,99568.63
2023-09-22T14:52:13.631Z,99568.31
2023-09-22T14:54:41.178Z,99572.84
2023-09-22T14:57:07.875Z,99572.53
2023-09-22T14:59:34.649Z,99570.59
2023-09-22T15:02:01.969Z,99570.31
2023-09-22T15:04:28.771Z,99573.28
2023-09-22T15:06:55.652Z,99576.88
2023-09-22T15:09:22.364Z,99565.50
2023-09-22T15:11:49.107Z,99567.03
2023-09-22T15:14:18.978Z,99558.00
2023-09-22T15:16:45.741Z,99568.56
2023-09-22T15:19:12.945Z,99568.31
2023-09-22T15:21:39.830Z,99577.78
2023-09-22T15:24:07.476Z,99580.47
2023-09-22T15:26:34.273Z,99573.34
2023-09-22T15:29:01.063Z,99578.25
2023-09-22T15:31:27.910Z,99574.00
2023-09-22T15:33:54.720Z,99583.00
2023-09-22T15:36:21.551Z,99577.53
2023-09-22T15:38:48.474Z,99583.00
2023-09-22T15:41:16.535Z,99579.09
2023-09-22T15:43:43.448Z,99579.34
2023-09-22T15:46:11.244Z,99582.66
2023-09-22T15:48:38.216Z,99580.50
2023-09-22T15:51:05.545Z,99584.53
2023-09-22T15:53:34.821Z,99581.34
2023-09-22T15:56:01.916Z,99587.34
2023-09-22T15:58:29.429Z,99597.28
2023-09-22T16:00:56.401Z,99594.22
2023-09-22T16:03:23.885Z,99591.81
2023-09-22T16:05:51.339Z,99603.59
2023-09-22T16:08:20.168Z,99611.53
2023-09-22T16:10:47.158Z,99607.06
2023-09-22T16:15:45.817Z,99605.09
2023-09-22T16:18:12.775Z,99618.63
2023-09-22T16:20:40.232Z,99623.28
2023-09-22T16:23:06.963Z,99620.88
2023-09-22T16:25:33.872Z,99626.88
2023-09-22T16:28:00.994Z,99621.84
2023-09-22T16:30:28.040Z,99631.94
2023-09-22T16:32:55.007Z,99635.16
2023-09-22T16:35:21.969Z,99628.03
2023-09-22T16:37:49.055Z,99637.34
2023-09-22T16:40:16.148Z,99635.75
2023-09-22T16:42:42.918Z,99633.66
2023-09-22T16:45:10.267Z,99631.03
2023-09-22T16:47:37.054Z,99637.22
2023-09-22T16:50:05.488Z,99642.78
2023-09-22T16:52:35.356Z,99644.59
2023-09-22T16:55:02.478Z,99647.97
2023-09-22T16:57:29.325Z,99648.75
2023-09-22T16:59:56.174Z,99649.53
2023-09-22T17:02:24.283Z,99652.25
2023-09-22T17:04:51.618Z,99647.19
2023-09-22T17:07:18.588Z,99644.91
2023-09-22T17:09:45.324Z,99645.56
2023-09-22T17:12:12.144Z,99647.03
2023-09-22T17:14:38.946Z,99648.94
2023-09-22T17:17:05.738Z,99652.44
2023-09-22T17:19:32.688Z,99654.03
2023-09-22T17:21:59.950Z,99668.47
2023-09-22T17:24:27.142Z,99668.09
2023-09-22T17:26:53.946Z,99670.13
2023-09-22T17:29:20.736Z,99672.88
2023-09-22T17:31:47.876Z,99682.72
2023-09-22T17:34:14.784Z,99687.94
2023-09-22T17:36:41.615Z,99683.47
2023-09-22T17:39:08.368Z,99689.78
2023-09-22T17:41:35.123Z,99689.88
2023-09-22T17:44:01.989Z,99693.19
2023-09-22T17:46:29.095Z,99693.84
2023-09-22T17:48:56.182Z,99700.88
2023-09-22T17:51:23.793Z,99703.59
2023-09-22T17:53:50.510Z,99698.59
2023-09-22T17:56:17.317Z,99703.47
2023-09-22T17:58:44.344Z,99702.78
2023-09-22T18:01:12.995Z,99702.53
2023-09-22T18:03:46.078Z,99707.66
2023-09-22T18:06:12.927Z,99714.94
2023-09-22T18:08:39.647Z,99705.34
2023-09-22T18:11:06.646Z,99713.19
2023-09-22T18:13:33.661Z,99711.16
2023-09-22T18:16:06.581Z,99712.00
2023-09-22T18:18:33.556Z,99706.47
2023-09-22T18:21:00.521Z,99713.00
2023-09-22T18:23:27.414Z,99708.81
2023-09-22T18:26:08.258Z,99704.91
2023-09-22T18:28:36.102Z,99703.44
2023-09-22T18:31:04.416Z,99705.63
2023-09-22T18:33:32.130Z,99701.50
2023-09-22T18:36:00.796Z,99700.56
2023-09-22T18:38:27.828Z,99701.50
2023-09-22T18:40:54.766Z,99700.59
2023-09-22T18:43:24.050Z,99701.28
2023-09-22T18:45:53.248Z,99699.31
2023-09-22T18:48:20.444Z,99697.81
2023-09-22T18:50:51.054Z,99695.28
2023-09-22T18:53:19.394Z,99694.53
2023-09-22T18:55:52.701Z,99688.72
2023-09-22T18:58:20.405Z,99692.53
2023-09-22T19:00:47.913Z,99683.03
2023-09-22T19:03:15.181Z,99688.72
2023-09-22T19:05:43.325Z,99685.34
2023-09-22T19:08:10.156Z,99688.94
2023-09-22T19:10:40.727Z,99688.19
2023-09-22T19:13:10.399Z,99694.47
2023-09-22T19:15:37.483Z,99693.97
2023-09-22T19:18:04.805Z,99704.16
2023-09-22T19:20:31.736Z,99702.66
2023-09-22T19:22:59.202Z,99706.66
2023-09-22T19:25:31.719Z,99711.97
2023-09-22T19:28:01.483Z,99720.25
2023-09-22T19:30:28.520Z,99722.84
2023-09-22T19:32:55.778Z,99721.31
2023-09-22T19:35:23.160Z,99725.91
2023-09-22T19:37:52.796Z,99724.38
2023-09-22T19:40:19.841Z,99733.00
2023-09-22T19:42:46.622Z,99733.31
2023-09-22T19:45:13.423Z,99733.16
2023-09-22T19:47:41.122Z,99741.00
2023-09-22T19:50:14.090Z,99736.56
2023-09-22T19:52:43.157Z,99744.38
2023-09-22T19:55:10.671Z,99744.84
2023-09-22T19:57:40.384Z,99745.28
2023-09-22T20:00:12.427Z,99745.91
2023-09-22T20:02:40.758Z,99760.50
2023-09-22T20:05:14.804Z,99754.81
2023-09-22T20:07:42.600Z,99749.91
2023-09-22T20:10:11.050Z,99745.84
2023-09-22T20:12:37.820Z,99739.69
2023-09-22T20:15:05.037Z,99740.91
2023-09-22T20:17:32.078Z,99735.00
2023-09-22T20:19:59.180Z,99737.66
2023-09-22T20:22:28.871Z,99735.25
2023-09-22T20:24:55.704Z,99730.94
2023-09-22T20:27:25.812Z,99736.50
2023-09-22T20:29:55.663Z,99730.31
2023-09-22T20:32:26.325Z,99732.19
2023-09-22T20:34:54.775Z,99731.38
2023-09-22T20:37:22.167Z,99729.53
2023-09-22T20:39:55.898Z,99728.72
2023-09-22T20:42:23.049Z,99718.06
2023-09-22T20:44:52.501Z,99730.31
2023-09-22T20:47:21.192Z,99735.66
2023-09-22T20:49:49.438Z,99728.72
2023-09-22T20:52:16.607Z,99729.97
2023-09-22T20:54:43.502Z,99716.03
2023-09-22T20:57:12.613Z,99720.78
2023-09-22T20:59:40.367Z,99725.50
2023-09-22T21:02:11.862Z,99725.72
2023-09-22T21:04:38.934Z,99727.56
2023-09-22T21:07:07.696Z,99727.13
2023-09-22T21:09:34.534Z,99726.69
2023-09-22T21:12:01.296Z,99724.19
2023-09-22T21:14:28.016Z,99732.34
2023-09-22T21:16:54.832Z,99724.31
2023-09-22T21:19:23.421Z,99727.72
2023-09-22T21:21:52.405Z,99726.84
2023-09-22T21:24:19.245Z,99730.84
2023-09-22T21:26:46.008Z,99730.34
2023-09-22T21:29:18.203Z,99725.31
2023-09-22T21:31:45.793Z,99730.94
2023-09-22T21:34:12.638Z,99732.06
2023-09-22T21:36:39.368Z,99740.94
2023-09-22T21:39:06.155Z,99746.78
2023-09-22T21:41:33.459Z,99748.16
2023-09-22T21:44:00.266Z,99752.13
2023-09-22T21:46:29.987Z,99751.84
2023-09-22T21:48:56.833Z,99745.59
2023-09-22T21:51:24.494Z,99747.59
2023-09-22T21:53:51.811Z,99752.25
2023-09-22T21:56:18.922Z,99753.41
2023-09-22T21:58:46.110Z,99747.63
2023-09-22T22:01:14.203Z,99746.38
2023-09-22T22:03:44.642Z,99749.16
2023-09-22T22:06:12.125Z,99746.84
2023-09-22T22:08:42.318Z,99750.13
2023-09-22T22:11:10.001Z,99750.69
2023-09-22T22:13:40.403Z,99746.97
2023-09-22T22:16:10.795Z,99758.50
2023-09-22T22:18:38.545Z,99754.78
2023-09-22T22:21:10.859Z,99755.56
2023-09-22T22:23:40.015Z,99748.63
2023-09-22T22:26:11.184Z,99751.88
2023-09-22T22:28:42.372Z,99749.41
2023-09-22T22:31:09.405Z,99744.09
2023-09-22T22:33:36.996Z,99747.56
2023-09-22T22:36:05.230Z,99745.47
2023-09-22T22:38:32.066Z,99752.47
2023-09-22T22:41:00.190Z,99752.22
2023-09-22T22:43:27.300Z,99760.22
2023-09-22T22:45:55.804Z,99762.69
2023-09-22T22:48:22.864Z,99764.91
2023-09-22T22:50:50.116Z,99773.50
2023-09-22T22:53:17.268Z,99777.22
2023-09-22T22:55:44.341Z,99776.19
2023-09-22T22:58:19.581Z,99778.59
2023-09-22T23:00:50.084Z,99782.94
2023-09-22T23:03:17.588Z,99786.41
2023-09-22T23:05:44.922Z,99788.84
2023-09-22T23:08:13.230Z,99796.50
2023-09-22T23:10:56.130Z,99791.16
2023-09-22T23:13:30.286Z,99802.44
2023-09-22T23:15:59.695Z,99802.91
2023-09-22T23:18:27.413Z,99813.34
2023-09-22T23:20:55.804Z,99811.34
2023-09-22T23:23:22.759Z,99803.56
2023-09-22T23:25:49.861Z,99815.53
2023-09-22T23:28:16.638Z,99804.03
2023-09-22T23:30:43.554Z,99818.66
2023-09-22T23:33:10.427Z,99820.59
2023-09-22T23:35:39.702Z,99831.75
2023-09-22T23:38:08.625Z,99824.63
2023-09-22T23:40:41.644Z,99826.56
2023-09-22T23:43:11.885Z,99829.56
2023-09-22T23:45:40.290Z,99835.78
2023-09-22T23:48:07.570Z,99830.28
2023-09-22T23:50:34.342Z,99824.81
2023-09-22T23:53:01.132Z,99835.94
2023-09-22T23:55:29.829Z,99836.38
2023-09-22T23:57:57.238Z,99841.31
